createdAt,value
2022-12-20T00:01:40.266Z,100.00
2022-12-20T00:04:13.451Z,100.00
2022-12-20T00:06:46.150Z,100.00
2022-12-20T00:09:18.894Z,100.00
2022-12-20T00:11:51.801Z,100.00
2022-12-20T00:14:25.097Z,100.00
2022-12-20T00:16:57.823Z,100.00
2022-12-20T00:19:30.429Z,100.00
2022-12-20T00:22:03.364Z,100.00
2022-12-20T00:24:36.351Z,100.00
2022-12-20T00:27:09.339Z,100.00
2022-12-20T00:29:41.916Z,100.00
2022-12-20T00:32:14.573Z,100.00
2022-12-20T00:34:47.192Z,100.00
2022-12-20T00:37:19.912Z,100.00
2022-12-20T00:39:52.585Z,100.00
2022-12-20T00:42:26.271Z,100.00
2022-12-20T00:44:59.217Z,100.00
2022-12-20T00:47:32.458Z,100.00
2022-12-20T00:50:05.432Z,100.00
2022-12-20T00:52:38.187Z,100.00
2022-12-20T00:55:11.218Z,100.00
2022-12-20T00:57:43.943Z,100.00
2022-12-20T01:00:17.993Z,100.00
2022-12-20T01:02:51.848Z,100.00
2022-12-20T01:05:24.773Z,100.00
2022-12-20T01:07:57.913Z,100.00
2022-12-20T01:10:30.591Z,100.00
2022-12-20T01:13:04.239Z,100.00
2022-12-20T01:15:37.893Z,100.00
2022-12-20T01:18:10.681Z,100.00
2022-12-20T01:20:43.942Z,100.00
2022-12-20T01:23:16.830Z,100.00
2022-12-20T01:25:52.604Z,100.00
2022-12-20T01:28:25.403Z,100.00
2022-12-20T01:30:58.466Z,100.00
2022-12-20T01:33:31.278Z,100.00
2022-12-20T01:36:07.620Z,100.00
2022-12-20T01:38:40.876Z,100.00
2022-12-20T01:41:19.784Z,100.00
2022-12-20T01:44:01.601Z,100.00
2022-12-20T01:46:37.433Z,100.00
2022-12-20T01:49:23.325Z,100.00
2022-12-20T01:52:00.216Z,100.00
2022-12-20T01:54:47.345Z,100.00
2022-12-20T01:57:45.502Z,100.00
2022-12-20T02:00:19.239Z,100.00
2022-12-20T02:02:52.951Z,100.00
2022-12-20T02:05:26.071Z,100.00
2022-12-20T02:07:59.680Z,100.00
2022-12-20T02:10:49.036Z,100.00
2022-12-20T02:13:36.384Z,100.00
2022-12-20T02:16:09.218Z,100.00
2022-12-20T02:18:53.581Z,100.00
2022-12-20T02:21:36.455Z,100.00
2022-12-20T02:24:51.138Z,100.00
2022-12-20T02:27:46.976Z,100.00
2022-12-20T02:30:22.789Z,100.00
2022-12-20T02:33:05.552Z,100.00
2022-12-20T02:35:40.620Z,100.00
2022-12-20T02:38:33.522Z,100.00
2022-12-20T02:41:20.451Z,100.00
2022-12-20T02:44:15.974Z,100.00
2022-12-20T02:46:49.598Z,100.00
2022-12-20T02:49:25.519Z,100.00
2022-12-20T02:51:59.349Z,100.00
2022-12-20T02:54:32.583Z,100.00
2022-12-20T02:57:15.918Z,100.00
2022-12-20T03:00:11.804Z,100.00
2022-12-20T03:03:05.031Z,100.00
2022-12-20T03:05:42.765Z,100.00
2022-12-20T03:08:15.938Z,100.00
2022-12-20T03:10:49.126Z,100.00
2022-12-20T03:13:23.334Z,100.00
2022-12-20T03:16:07.094Z,100.00
2022-12-20T03:18:40.951Z,100.00
2022-12-20T03:21:14.227Z,100.00
2022-12-20T03:23:47.345Z,100.00
2022-12-20T03:26:20.014Z,100.00
2022-12-20T03:28:54.341Z,100.00
2022-12-20T03:31:28.582Z,100.00
2022-12-20T03:34:01.322Z,100.00
2022-12-20T03:36:34.911Z,100.00
2022-12-20T03:39:08.860Z,100.00
2022-12-20T03:41:43.718Z,100.00
2022-12-20T03:44:17.851Z,100.00
2022-12-20T03:46:50.703Z,100.00
2022-12-20T03:49:23.395Z,100.00
2022-12-20T03:51:56.691Z,100.00
2022-12-20T03:54:29.518Z,100.00
2022-12-20T03:57:07.351Z,100.00
2022-12-20T03:59:40.108Z,100.00
2022-12-20T04:02:13.515Z,100.00
2022-12-20T04:04:46.759Z,100.00
2022-12-20T04:07:19.854Z,100.00
2022-12-20T04:09:52.616Z,100.00
2022-12-20T04:12:25.429Z,100.00
2022-12-20T04:14:58.183Z,100.00
2022-12-20T04:17:33.293Z,100.00
2022-12-20T04:20:09.666Z,100.00
2022-12-20T04:22:42.737Z,100.00
2022-12-20T04:25:17.143Z,100.00
2022-12-20T04:27:49.981Z,100.00
2022-12-20T04:30:22.941Z,100.00
2022-12-20T04:32:56.652Z,100.00
2022-12-20T04:35:30.694Z,100.00
2022-12-20T04:38:03.923Z,100.00
2022-12-20T04:40:37.203Z,100.00
2022-12-20T04:43:11.733Z,100.00
2022-12-20T04:45:45.211Z,100.00
2022-12-20T04:48:54.665Z,100.00
2022-12-20T04:50:54.025Z,100.00
2022-12-20T04:53:37.317Z,100.00
2022-12-20T04:56:10.865Z,100.00
2022-12-20T04:58:43.997Z,100.00
2022-12-20T05:01:17.207Z,100.00
2022-12-20T05:03:51.929Z,100.00
2022-12-20T05:06:25.336Z,100.00
2022-12-20T05:08:58.095Z,100.00
2022-12-20T05:11:31.623Z,100.00
2022-12-20T05:14:04.603Z,100.00
2022-12-20T05:16:38.058Z,100.00
2022-12-20T05:19:11.235Z,100.00
2022-12-20T05:22:02.838Z,100.00
2022-12-20T05:24:54.439Z,100.00
2022-12-20T05:27:34.865Z,100.00
2022-12-20T05:30:10.025Z,100.00
2022-12-20T05:32:43.050Z,100.00
2022-12-20T05:35:16.159Z,100.00
2022-12-20T05:37:50.032Z,100.00
2022-12-20T05:40:24.104Z,100.00
2022-12-20T05:42:57.123Z,100.00
2022-12-20T05:45:31.605Z,100.00
2022-12-20T05:48:07.171Z,100.00
2022-12-20T05:50:41.347Z,100.00
2022-12-20T05:53:27.840Z,100.00
2022-12-20T05:56:03.384Z,100.00
2022-12-20T05:58:39.092Z,100.00
2022-12-20T06:01:12.552Z,100.00
2022-12-20T06:03:46.124Z,100.00
2022-12-20T06:06:20.796Z,100.00
2022-12-20T06:08:56.369Z,100.00
2022-12-20T06:11:30.844Z,100.00
2022-12-20T06:14:07.948Z,100.00
2022-12-20T06:16:42.521Z,100.00
2022-12-20T06:19:21.159Z,100.00
2022-12-20T06:21:50.756Z,100.00
2022-12-20T06:24:27.020Z,100.00
2022-12-20T06:26:59.875Z,100.00
2022-12-20T06:29:34.501Z,100.00
2022-12-20T06:32:09.050Z,100.00
2022-12-20T06:34:43.257Z,100.00
2022-12-20T06:37:16.765Z,100.00
2022-12-20T06:39:50.009Z,100.00
2022-12-20T06:42:22.986Z,100.00
2022-12-20T06:44:56.019Z,100.00
2022-12-20T06:47:28.789Z,100.00
2022-12-20T06:50:02.167Z,100.00
2022-12-20T06:52:35.015Z,100.00
2022-12-20T06:55:08.007Z,100.00
2022-12-20T06:57:43.395Z,100.00
2022-12-20T07:00:17.558Z,100.00
2022-12-20T07:02:50.477Z,100.00
2022-12-20T07:05:23.527Z,100.00
2022-12-20T07:07:57.056Z,100.00
2022-12-20T07:10:30.120Z,100.00
2022-12-20T07:13:03.450Z,100.00
2022-12-20T07:15:36.056Z,100.00
2022-12-20T07:18:09.750Z,100.00
2022-12-20T07:20:42.554Z,100.00
2022-12-20T07:23:15.790Z,100.00
2022-12-20T07:25:56.920Z,100.00
2022-12-20T07:28:30.969Z,100.00
2022-12-20T07:31:05.139Z,100.00
2022-12-20T07:33:39.691Z,100.00
2022-12-20T07:36:14.580Z,100.00
2022-12-20T07:38:47.671Z,100.00
2022-12-20T07:41:21.015Z,100.00
2022-12-20T07:43:53.919Z,100.00
2022-12-20T07:46:27.236Z,100.00
2022-12-20T07:49:01.179Z,100.00
2022-12-20T07:51:50.060Z,100.00
2022-12-20T07:54:32.437Z,100.00
2022-12-20T07:57:10.255Z,100.00
2022-12-20T07:59:46.638Z,100.00
2022-12-20T08:02:24.012Z,100.00
2022-12-20T08:04:57.853Z,100.00
2022-12-20T08:07:31.511Z,100.00
2022-12-20T08:10:05.624Z,100.00
2022-12-20T08:12:39.043Z,100.00
2022-12-20T08:15:12.583Z,100.00
2022-12-20T08:17:45.389Z,100.00
2022-12-20T08:20:19.968Z,100.00
2022-12-20T08:22:52.061Z,100.00
2022-12-20T08:25:25.972Z,100.00
2022-12-20T08:28:00.324Z,99.92
2022-12-20T08:30:33.405Z,99.82
2022-12-20T08:33:06.663Z,100.00
2022-12-20T08:35:39.752Z,100.00
2022-12-20T08:38:12.449Z,99.95
2022-12-20T08:40:45.146Z,99.65
2022-12-20T08:43:17.877Z,99.83
2022-12-20T08:45:59.979Z,99.79
2022-12-20T08:48:32.914Z,99.57
2022-12-20T08:51:09.612Z,99.45
2022-12-20T08:53:42.653Z,99.12
2022-12-20T08:56:18.446Z,98.45
2022-12-20T08:58:51.650Z,98.04
2022-12-20T09:01:27.092Z,98.40
2022-12-20T09:04:00.852Z,98.47
2022-12-20T09:06:36.205Z,98.58
2022-12-20T09:09:09.191Z,98.80
2022-12-20T09:11:42.488Z,99.27
2022-12-20T09:14:15.475Z,99.13
2022-12-20T09:16:48.384Z,99.28
2022-12-20T09:19:21.331Z,99.58
2022-12-20T09:21:55.725Z,99.71
2022-12-20T09:24:29.043Z,99.39
2022-12-20T09:27:02.389Z,99.59
2022-12-20T09:29:36.256Z,99.55
2022-12-20T09:32:09.146Z,99.48
2022-12-20T09:34:41.966Z,99.27
2022-12-20T09:37:14.637Z,99.07
2022-12-20T09:39:49.171Z,98.44
2022-12-20T09:42:25.920Z,98.04
2022-12-20T09:45:09.187Z,98.24
2022-12-20T09:47:42.485Z,98.40
2022-12-20T09:50:17.628Z,97.86
2022-12-20T09:52:55.154Z,97.71
2022-12-20T09:55:44.730Z,97.90
2022-12-20T09:58:40.066Z,98.62
2022-12-20T10:01:23.009Z,98.58
2022-12-20T10:03:53.514Z,98.96
2022-12-20T10:06:45.543Z,99.43
2022-12-20T10:09:45.191Z,100.00
2022-12-20T10:12:34.630Z,99.43
2022-12-20T10:15:41.750Z,99.26
2022-12-20T10:18:46.572Z,99.77
2022-12-20T10:21:38.563Z,99.67
2022-12-20T10:24:33.071Z,99.54
2022-12-20T10:27:19.111Z,99.22
2022-12-20T10:29:52.031Z,98.94
2022-12-20T10:32:29.308Z,99.01
2022-12-20T10:35:33.890Z,99.07
2022-12-20T10:38:16.930Z,99.49
2022-12-20T10:41:22.559Z,99.78
2022-12-20T10:44:01.294Z,99.41
2022-12-20T10:46:55.925Z,99.74
2022-12-20T10:49:38.281Z,99.13
2022-12-20T10:52:15.745Z,99.06
2022-12-20T10:54:49.170Z,99.19
2022-12-20T10:57:33.730Z,99.31
2022-12-20T11:00:09.412Z,99.52
2022-12-20T11:02:43.986Z,99.58
2022-12-20T11:05:24.340Z,99.51
2022-12-20T11:08:39.278Z,99.42
2022-12-20T11:10:55.267Z,99.58
2022-12-20T11:13:29.701Z,100.00
2022-12-20T11:16:02.732Z,100.00
2022-12-20T11:18:54.575Z,100.00
2022-12-20T11:21:54.953Z,100.00
2022-12-20T11:24:56.205Z,100.00
2022-12-20T11:27:45.268Z,100.00
2022-12-20T11:30:21.732Z,100.00
2022-12-20T11:33:20.413Z,99.85
2022-12-20T11:36:01.185Z,99.99
2022-12-20T11:38:53.415Z,99.83
2022-12-20T11:41:40.114Z,99.85
2022-12-20T11:44:50.114Z,99.80
2022-12-20T11:48:02.633Z,100.00
2022-12-20T11:50:52.270Z,100.00
2022-12-20T11:53:35.642Z,99.91
2022-12-20T11:56:16.160Z,99.79
2022-12-20T11:58:52.778Z,99.63
2022-12-20T12:01:39.199Z,99.69
2022-12-20T12:04:22.073Z,100.00
2022-12-20T12:06:59.951Z,100.00
2022-12-20T12:09:55.600Z,100.00
2022-12-20T12:12:41.348Z,100.00
2022-12-20T12:15:40.070Z,100.00
2022-12-20T12:18:20.378Z,100.00
2022-12-20T12:21:26.308Z,100.00
2022-12-20T12:24:18.465Z,100.00
2022-12-20T12:26:51.205Z,100.00
2022-12-20T12:29:24.668Z,100.00
2022-12-20T12:32:22.052Z,100.00
2022-12-20T12:35:22.170Z,100.00
2022-12-20T12:38:08.543Z,100.00
2022-12-20T12:41:03.343Z,100.00
2022-12-20T12:43:44.089Z,100.00
2022-12-20T12:46:29.544Z,100.00
2022-12-20T12:49:21.920Z,100.00
2022-12-20T12:52:01.717Z,100.00
2022-12-20T12:54:40.765Z,100.00
2022-12-20T12:57:17.532Z,100.00
2022-12-20T12:59:52.724Z,100.00
2022-12-20T13:02:29.269Z,100.00
2022-12-20T13:05:19.424Z,100.00
2022-12-20T13:07:51.244Z,100.00
2022-12-20T13:10:29.845Z,100.00
2022-12-20T13:13:04.382Z,100.00
2022-12-20T13:15:45.627Z,100.00
2022-12-20T13:18:24.711Z,100.00
2022-12-20T13:21:21.973Z,100.00
2022-12-20T13:24:18.640Z,100.00
2022-12-20T13:26:55.853Z,100.00
2022-12-20T13:29:35.182Z,100.00
2022-12-20T13:32:30.281Z,100.00
2022-12-20T13:35:03.114Z,100.00
2022-12-20T13:37:59.433Z,100.00
2022-12-20T13:40:45.909Z,100.00
2022-12-20T13:43:26.430Z,100.00
2022-12-20T13:46:18.372Z,100.00
2022-12-20T13:49:02.423Z,100.00
2022-12-20T13:51:35.302Z,100.00
2022-12-20T13:54:12.841Z,100.00
2022-12-20T13:56:49.798Z,100.00
2022-12-20T13:59:27.351Z,100.00
2022-12-20T14:02:07.161Z,100.00
2022-12-20T14:04:46.227Z,100.00
2022-12-20T14:07:20.394Z,100.00
2022-12-20T14:10:01.071Z,100.00
2022-12-20T14:12:37.043Z,100.00
2022-12-20T14:15:22.470Z,100.00
2022-12-20T14:17:56.019Z,100.00
2022-12-20T14:20:30.848Z,100.00
2022-12-20T14:23:12.530Z,100.00
2022-12-20T14:25:52.645Z,100.00
2022-12-20T14:28:32.639Z,100.00
2022-12-20T14:31:08.749Z,100.00
2022-12-20T14:33:43.223Z,100.00
2022-12-20T14:36:22.305Z,100.00
2022-12-20T14:38:55.175Z,100.00
2022-12-20T14:41:40.845Z,100.00
2022-12-20T14:44:19.186Z,100.00
2022-12-20T14:46:59.033Z,100.00
2022-12-20T14:49:34.655Z,100.00
2022-12-20T14:52:22.876Z,100.00
2022-12-20T14:55:08.242Z,100.00
2022-12-20T14:57:42.134Z,100.00
2022-12-20T15:00:25.086Z,100.00
2022-12-20T15:03:13.883Z,100.00
2022-12-20T15:05:58.652Z,100.00
2022-12-20T15:08:33.363Z,100.00
2022-12-20T15:11:13.807Z,100.00
2022-12-20T15:13:50.403Z,100.00
2022-12-20T15:16:30.117Z,100.00
2022-12-20T15:19:05.142Z,100.00
2022-12-20T15:21:43.145Z,100.00
2022-12-20T15:24:23.688Z,100.00
2022-12-20T15:26:57.280Z,100.00
2022-12-20T15:29:30.915Z,100.00
2022-12-20T15:32:17.389Z,100.00
2022-12-20T15:34:50.096Z,100.00
2022-12-20T15:37:22.944Z,100.00
2022-12-20T15:39:55.662Z,100.00
2022-12-20T15:42:28.385Z,100.00
2022-12-20T15:45:01.081Z,100.00
2022-12-20T15:47:34.184Z,100.00
2022-12-20T15:50:08.753Z,100.00
2022-12-20T15:52:41.719Z,100.00
2022-12-20T15:55:14.485Z,100.00
2022-12-20T15:57:47.553Z,100.00
2022-12-20T19:02:56.804Z,100.00
2022-12-20T19:18:37.610Z,100.00
2022-12-20T19:21:27.008Z,100.00
2022-12-20T19:24:05.316Z,100.00
2022-12-20T19:26:39.951Z,100.00
2022-12-20T19:29:12.667Z,100.00
2022-12-20T19:31:45.622Z,100.00
2022-12-20T19:34:18.978Z,100.00
2022-12-20T19:36:53.060Z,100.00
2022-12-20T19:39:25.859Z,100.00
2022-12-20T19:44:34.413Z,100.00
2022-12-20T19:47:07.572Z,100.00
2022-12-20T19:49:40.559Z,100.00
2022-12-20T19:52:13.294Z,99.86
2022-12-20T19:54:46.231Z,99.66
2022-12-20T19:57:18.962Z,99.30
2022-12-20T19:59:56.045Z,98.86
2022-12-20T20:02:27.664Z,98.79
2022-12-20T20:05:00.818Z,98.49
2022-12-20T20:07:34.004Z,98.06
2022-12-20T20:10:08.535Z,97.98
2022-12-20T20:12:42.171Z,97.97
2022-12-20T20:15:15.027Z,98.21
2022-12-20T20:17:47.676Z,98.27
2022-12-20T20:20:21.003Z,98.36
2022-12-20T20:22:53.868Z,98.45
2022-12-20T20:25:26.645Z,98.53
2022-12-20T20:27:59.437Z,98.56
2022-12-20T20:30:32.404Z,98.61
2022-12-20T20:33:05.401Z,98.58
2022-12-20T20:35:39.110Z,98.60
2022-12-20T20:38:13.461Z,98.45
2022-12-20T20:40:46.517Z,98.31
2022-12-20T20:43:20.133Z,98.31
2022-12-20T20:45:53.163Z,98.34
2022-12-20T20:48:26.493Z,98.39
2022-12-20T20:51:00.149Z,98.58
2022-12-20T20:53:34.437Z,98.75
2022-12-20T20:56:08.882Z,98.91
2022-12-20T20:58:42.283Z,99.05
2022-12-20T21:01:15.497Z,99.37
2022-12-20T21:03:48.957Z,99.30
2022-12-20T21:08:58.099Z,99.04
2022-12-20T21:11:31.042Z,98.96
2022-12-20T21:14:04.322Z,98.69
2022-12-20T21:16:37.456Z,98.33
2022-12-20T21:19:12.000Z,98.23
2022-12-20T21:21:44.816Z,98.16
2022-12-20T21:24:17.819Z,97.90
2022-12-20T21:26:53.324Z,97.77
2022-12-20T21:29:26.187Z,97.60
2022-12-20T21:31:59.193Z,97.19
2022-12-20T21:34:32.240Z,96.94
2022-12-20T21:37:07.078Z,96.92
2022-12-20T21:39:39.988Z,96.72
2022-12-20T21:42:12.805Z,96.58
2022-12-20T21:44:45.740Z,96.23
2022-12-20T21:47:18.833Z,96.03
2022-12-20T21:49:51.802Z,95.96
2022-12-20T21:52:24.686Z,95.66
2022-12-20T21:54:58.355Z,95.53
2022-12-20T21:57:31.639Z,95.27
2022-12-20T22:00:06.056Z,95.14
2022-12-20T22:02:40.200Z,94.84
2022-12-20T22:05:12.993Z,94.80
2022-12-20T22:07:47.988Z,94.74
2022-12-20T22:10:20.879Z,94.56
2022-12-20T22:12:55.127Z,94.44
2022-12-20T22:15:28.132Z,94.23
2022-12-20T22:18:00.977Z,94.08
2022-12-20T22:20:35.300Z,94.01
2022-12-20T22:23:08.044Z,93.98
2022-12-20T22:25:41.650Z,93.72
2022-12-20T22:28:14.590Z,93.55
2022-12-20T22:30:47.632Z,93.44
2022-12-20T22:33:20.581Z,93.27
2022-12-20T22:35:53.719Z,93.07
2022-12-20T22:38:26.589Z,93.08
2022-12-20T22:41:17.319Z,92.91
2022-12-20T22:43:51.016Z,92.87
2022-12-20T22:46:24.330Z,92.74
2022-12-20T22:48:57.685Z,92.54
2022-12-20T22:51:32.873Z,92.42
2022-12-20T22:54:05.794Z,92.03
2022-12-20T22:56:38.557Z,91.94
2022-12-20T22:59:11.269Z,91.54
2022-12-20T23:01:44.409Z,91.39
2022-12-20T23:04:17.668Z,91.29
2022-12-20T23:06:50.681Z,91.10
2022-12-20T23:09:28.624Z,91.21
2022-12-20T23:12:19.512Z,90.96
2022-12-20T23:15:10.812Z,90.81
2022-12-20T23:17:43.632Z,91.14
2022-12-20T23:20:34.300Z,91.25
2022-12-20T23:23:07.836Z,91.30
2022-12-20T23:25:42.237Z,90.91
2022-12-20T23:28:14.943Z,90.91
2022-12-20T23:30:47.880Z,90.86
2022-12-20T23:33:20.577Z,90.70
2022-12-20T23:36:01.012Z,90.70
2022-12-20T23:38:39.017Z,90.79
2022-12-20T23:41:15.539Z,91.30
2022-12-20T23:43:48.556Z,91.56
2022-12-20T23:46:25.000Z,91.63
2022-12-20T23:49:00.105Z,91.83
2022-12-20T23:51:34.525Z,91.85
2022-12-20T23:54:07.536Z,91.76
2022-12-20T23:56:40.410Z,91.96
2022-12-20T23:59:13.077Z,92.32
